createdAt,value
2023-10-21T00:01:09.838Z,0.16
2023-10-21T00:06:13.722Z,0.14
2023-10-21T00:11:18.252Z,0.16
2023-10-21T00:16:22.299Z,0.14
2023-10-21T00:21:26.309Z,0.27
2023-10-21T00:26:30.555Z,0.36
2023-10-21T00:31:34.497Z,0.47
2023-10-21T00:36:38.992Z,0.52
2023-10-21T00:41:44.359Z,0.59
2023-10-21T00:46:48.590Z,0.72
2023-10-21T00:51:52.809Z,0.83
2023-10-21T00:56:56.796Z,0.93
2023-10-21T01:02:01.416Z,0.82
2023-10-21T01:07:05.448Z,0.73
2023-10-21T01:12:09.653Z,0.94
2023-10-21T01:17:13.567Z,1.04
2023-10-21T01:22:17.893Z,0.73
2023-10-21T01:27:22.346Z,0.89
2023-10-21T01:32:27.260Z,1.02
2023-10-21T01:37:31.279Z,1.26
2023-10-21T01:42:37.035Z,1.65
2023-10-21T01:47:42.023Z,1.99
2023-10-21T01:52:46.070Z,2.22
2023-10-21T01:57:50.031Z,2.08
2023-10-21T02:02:56.282Z,2.49
2023-10-21T02:08:00.553Z,2.71
2023-10-21T02:13:04.490Z,2.97
2023-10-21T02:18:10.441Z,3.09
2023-10-21T02:23:15.282Z,3.33
2023-10-21T02:28:19.876Z,3.40
2023-10-21T02:33:25.288Z,3.55
2023-10-21T02:38:29.984Z,3.69
2023-10-21T02:43:35.159Z,3.85
2023-10-21T02:48:40.614Z,3.98
2023-10-21T02:53:45.361Z,4.08
2023-10-21T02:58:49.434Z,4.23
2023-10-21T03:03:54.815Z,4.34
2023-10-21T03:08:59.133Z,4.46
2023-10-21T03:14:03.129Z,4.68
2023-10-21T03:19:06.914Z,4.87
2023-10-21T03:24:11.379Z,5.20
2023-10-21T03:29:15.489Z,5.32
2023-10-21T03:34:19.464Z,5.46
2023-10-21T03:39:23.455Z,5.56
2023-10-21T03:44:27.864Z,5.58
2023-10-21T03:49:32.441Z,5.57
2023-10-21T03:54:36.598Z,5.60
2023-10-21T03:59:40.794Z,5.78
2023-10-21T04:04:44.760Z,6.00
2023-10-21T04:09:48.723Z,6.29
2023-10-21T04:14:52.715Z,6.40
2023-10-21T04:19:56.593Z,6.83
2023-10-21T04:25:03.610Z,6.99
2023-10-21T04:30:09.748Z,7.11
2023-10-21T04:35:14.587Z,7.34
2023-10-21T04:40:18.761Z,7.69
2023-10-21T04:45:22.792Z,8.04
2023-10-21T04:50:28.393Z,8.36
2023-10-21T04:55:32.725Z,8.32
2023-10-21T05:00:36.761Z,8.69
2023-10-21T05:05:43.324Z,8.76
2023-10-21T05:10:47.692Z,8.78
2023-10-21T05:15:52.232Z,8.81
2023-10-21T05:20:56.129Z,8.86
2023-10-21T05:26:00.653Z,8.91
2023-10-21T05:31:05.163Z,8.96
2023-10-21T05:36:09.470Z,9.04
2023-10-21T05:41:13.306Z,9.04
2023-10-21T05:46:17.344Z,8.94
2023-10-21T05:51:21.291Z,8.94
2023-10-21T05:56:25.274Z,8.90
2023-10-21T06:01:29.393Z,8.96
2023-10-21T06:06:33.476Z,8.98
2023-10-21T06:11:37.983Z,9.02
2023-10-21T06:16:42.098Z,9.10
2023-10-21T06:21:45.987Z,9.16
2023-10-21T06:26:50.107Z,9.23
2023-10-21T06:31:54.236Z,9.23
2023-10-21T06:36:58.323Z,9.21
2023-10-21T06:42:02.582Z,9.02
2023-10-21T06:47:06.486Z,9.28
2023-10-21T06:52:10.446Z,9.31
2023-10-21T06:57:22.250Z,9.38
2023-10-21T07:02:26.175Z,9.48
2023-10-21T07:07:30.759Z,9.56
2023-10-21T07:12:36.510Z,9.69
2023-10-21T07:17:40.563Z,9.80
2023-10-21T07:22:51.299Z,9.90
2023-10-21T07:27:55.242Z,9.92
2023-10-21T07:32:59.449Z,9.93
2023-10-21T07:38:03.508Z,9.86
2023-10-21T07:43:07.407Z,9.89
2023-10-21T07:48:12.697Z,9.84
2023-10-21T07:53:16.642Z,9.78
2023-10-21T07:58:20.616Z,9.74
2023-10-21T08:03:24.519Z,9.72
2023-10-21T08:08:30.361Z,9.61
2023-10-21T08:13:34.269Z,9.47
2023-10-21T08:18:38.370Z,9.24
2023-10-21T08:23:42.990Z,9.00
2023-10-21T08:28:47.060Z,8.80
2023-10-21T08:33:51.312Z,8.65
2023-10-21T08:38:55.764Z,8.52
2023-10-21T08:43:59.826Z,8.42
2023-10-21T08:49:05.525Z,8.33
2023-10-21T08:54:10.362Z,8.24
2023-10-21T08:59:16.545Z,8.14
2023-10-21T09:04:24.384Z,8.07
2023-10-21T09:09:31.241Z,8.00
2023-10-21T09:14:57.691Z,7.88
2023-10-21T09:20:01.973Z,7.52
2023-10-21T09:25:21.297Z,7.66
2023-10-21T09:30:32.628Z,7.56
2023-10-21T09:35:39.165Z,7.45
2023-10-21T09:40:44.154Z,7.37
2023-10-21T09:45:51.854Z,7.32
2023-10-21T09:51:01.349Z,7.29
2023-10-21T09:56:05.662Z,7.25
2023-10-21T10:01:12.614Z,7.20
2023-10-21T10:06:17.083Z,6.99
2023-10-21T10:11:23.392Z,7.07
2023-10-21T10:16:29.195Z,6.96
2023-10-21T10:21:36.005Z,6.86
2023-10-21T10:26:40.509Z,6.67
2023-10-21T10:31:49.305Z,6.38
2023-10-21T10:36:54.062Z,6.54
2023-10-21T10:42:00.261Z,6.46
2023-10-21T10:47:06.690Z,6.34
2023-10-21T10:52:10.665Z,6.27
2023-10-21T10:57:19.033Z,6.10
2023-10-21T11:02:25.103Z,5.96
2023-10-21T11:07:33.147Z,5.89
2023-10-21T11:12:38.504Z,5.86
2023-10-21T11:17:42.586Z,5.41
2023-10-21T11:22:47.142Z,5.02
2023-10-21T11:27:51.611Z,4.83
2023-10-21T11:32:57.030Z,4.76
2023-10-21T11:38:02.105Z,4.77
2023-10-21T11:43:10.629Z,4.82
2023-10-21T11:48:18.474Z,4.82
2023-10-21T11:53:22.700Z,4.81
2023-10-21T11:58:48.184Z,4.81
2023-10-21T12:04:10.933Z,4.78
2023-10-21T12:09:27.093Z,4.69
2023-10-21T12:14:46.225Z,4.55
2023-10-21T12:20:08.930Z,4.43
2023-10-21T12:25:31.413Z,4.66
2023-10-21T12:31:01.430Z,4.63
2023-10-21T12:36:24.281Z,4.62
2023-10-21T12:41:28.394Z,4.64
2023-10-21T12:46:37.139Z,4.66
2023-10-21T12:51:41.296Z,4.67
2023-10-21T12:56:45.266Z,4.65
2023-10-21T13:01:49.399Z,4.63
2023-10-21T13:06:55.534Z,4.64
2023-10-21T13:11:59.670Z,4.58
2023-10-21T13:17:10.019Z,4.54
2023-10-21T13:22:14.090Z,4.40
2023-10-21T13:27:18.042Z,4.37
2023-10-21T13:32:24.204Z,4.34
2023-10-21T13:37:28.174Z,4.34
2023-10-21T13:42:32.187Z,4.35
2023-10-21T13:47:36.104Z,4.05
2023-10-21T13:52:40.984Z,4.25
2023-10-21T13:57:47.328Z,4.18
2023-10-21T14:02:51.488Z,4.11
2023-10-21T14:07:55.879Z,4.00
2023-10-21T14:13:00.051Z,3.95
2023-10-21T14:18:08.862Z,3.82
2023-10-21T14:23:16.155Z,3.77
2023-10-21T14:28:20.861Z,3.67
2023-10-21T14:34:05.687Z,3.57
2023-10-21T14:39:09.598Z,3.53
2023-10-21T14:44:13.733Z,3.47
2023-10-21T14:49:17.574Z,3.41
2023-10-21T14:54:21.653Z,3.37
2023-10-21T14:59:26.698Z,3.34
2023-10-21T15:04:31.092Z,3.31
2023-10-21T15:09:35.185Z,3.29
2023-10-21T15:14:48.423Z,3.29
2023-10-21T15:19:53.108Z,3.31
2023-10-21T15:24:57.018Z,3.31
2023-10-21T15:30:01.834Z,3.31
2023-10-21T15:35:08.333Z,3.30
2023-10-21T15:40:15.230Z,3.28
2023-10-21T15:45:19.274Z,3.23
2023-10-21T15:50:23.258Z,3.18
2023-10-21T15:55:27.885Z,3.10
2023-10-21T16:00:32.028Z,3.08
2023-10-21T16:05:36.723Z,3.05
2023-10-21T16:10:41.894Z,3.00
2023-10-21T16:15:45.820Z,2.91
2023-10-21T16:20:49.828Z,2.85
2023-10-21T16:25:53.879Z,2.81
2023-10-21T16:30:57.832Z,2.81
2023-10-21T16:36:03.828Z,2.77
2023-10-21T16:41:10.530Z,2.80
2023-10-21T16:46:14.620Z,2.80
2023-10-21T16:51:18.591Z,2.81
2023-10-21T16:56:22.591Z,2.82
2023-10-21T17:01:27.511Z,2.83
2023-10-21T17:06:33.005Z,2.68
2023-10-21T17:11:38.239Z,2.72
2023-10-21T17:16:42.893Z,2.76
2023-10-21T17:21:47.122Z,2.78
2023-10-21T17:26:51.834Z,2.83
2023-10-21T17:31:55.927Z,2.89
2023-10-21T17:37:00.314Z,2.95
2023-10-21T17:42:04.906Z,2.92
2023-10-21T17:47:08.957Z,3.00
2023-10-21T17:52:14.078Z,2.96
2023-10-21T17:57:18.024Z,2.90
2023-10-21T18:02:22.241Z,2.83
2023-10-21T18:07:26.133Z,2.75
2023-10-21T18:12:30.292Z,2.68
2023-10-21T18:17:35.279Z,2.59
2023-10-21T18:22:39.340Z,2.62
2023-10-21T18:27:43.538Z,2.58
2023-10-21T18:32:48.461Z,2.56
2023-10-21T18:37:58.939Z,2.56
2023-10-21T18:43:03.090Z,2.52
2023-10-21T18:48:07.496Z,2.48
2023-10-21T18:53:11.732Z,2.40
2023-10-21T18:58:16.013Z,2.40
2023-10-21T19:03:20.298Z,2.39
2023-10-21T19:08:25.845Z,2.32
2023-10-21T19:13:29.687Z,2.26
2023-10-21T19:18:33.750Z,2.23
2023-10-21T19:23:38.291Z,2.23
2023-10-21T19:28:42.370Z,2.20
2023-10-21T19:33:47.027Z,2.10
2023-10-21T19:38:53.053Z,2.10
2023-10-21T19:44:00.065Z,2.10
2023-10-21T19:49:08.814Z,2.10
2023-10-21T19:54:13.061Z,2.06
2023-10-21T19:59:17.117Z,1.99
2023-10-21T20:04:21.393Z,1.95
2023-10-21T20:09:25.375Z,1.95
2023-10-21T20:14:29.532Z,1.96
2023-10-21T20:19:33.796Z,1.90
2023-10-21T20:24:38.564Z,1.91
2023-10-21T20:29:42.821Z,1.92
2023-10-21T20:34:46.911Z,1.93
2023-10-21T20:39:51.231Z,1.94
2023-10-21T20:44:55.546Z,1.93
2023-10-21T20:49:59.790Z,1.71
2023-10-21T20:55:03.749Z,1.65
2023-10-21T21:00:12.983Z,1.92
2023-10-21T21:05:17.034Z,1.90
2023-10-21T21:10:22.888Z,1.86
2023-10-21T21:15:28.163Z,1.93
2023-10-21T21:20:32.185Z,1.95
2023-10-21T21:25:36.131Z,1.96
2023-10-21T21:30:40.212Z,1.97
2023-10-21T21:36:13.754Z,1.96
2023-10-21T21:41:22.622Z,1.97
2023-10-21T21:46:26.489Z,1.73
2023-10-21T21:51:31.067Z,1.87
2023-10-21T21:56:35.380Z,1.87
2023-10-21T22:01:39.330Z,1.85
2023-10-21T22:06:44.197Z,1.89
2023-10-21T22:11:49.539Z,1.88
2023-10-21T22:16:53.899Z,2.00
2023-10-21T22:21:57.950Z,2.04
2023-10-21T22:27:03.069Z,2.04
2023-10-21T22:32:08.368Z,1.97
2023-10-21T22:37:12.322Z,2.02
2023-10-21T22:42:16.148Z,2.04
2023-10-21T22:47:20.125Z,2.05
2023-10-21T22:52:24.077Z,2.03
2023-10-21T22:57:27.902Z,1.97
2023-10-21T23:02:32.088Z,2.06
2023-10-21T23:07:38.259Z,2.04
2023-10-21T23:12:42.388Z,2.03
2023-10-21T23:17:48.099Z,2.04
2023-10-21T23:22:53.100Z,2.07
2023-10-21T23:27:58.478Z,2.12
2023-10-21T23:33:02.484Z,2.14
2023-10-21T23:38:06.945Z,2.15
2023-10-21T23:43:13.585Z,2.12
2023-10-21T23:48:17.534Z,2.08
2023-10-21T23:53:21.701Z,2.07
2023-10-21T23:58:25.567Z,2.00
